createdAt,value
2019-01-05T00:02:26.851Z,30.27
2019-01-05T00:05:20.770Z,31.80
2019-01-05T00:08:09.650Z,30.40
2019-01-05T00:10:57.920Z,29.90
2019-01-05T00:13:58.397Z,29.57
2019-01-05T00:16:49.714Z,29.60
2019-01-05T00:19:38.321Z,28.70
2019-01-05T00:22:38.636Z,29.70
2019-01-05T00:25:41.864Z,31.23
2019-01-05T00:28:27.269Z,30.00
2019-01-05T00:31:14.246Z,29.23
2019-01-05T00:33:53.450Z,30.10
2019-01-05T00:36:49.206Z,29.00
2019-01-05T00:39:43.109Z,28.90
2019-01-05T00:42:34.709Z,28.13
2019-01-05T00:45:22.152Z,29.10
2019-01-05T00:48:12.355Z,27.63
2019-01-05T00:51:01.356Z,30.73
2019-01-05T00:53:48.686Z,28.90
2019-01-05T00:56:36.925Z,29.30
2019-01-05T00:59:23.930Z,30.73
2019-01-05T01:02:28.030Z,29.50
2019-01-05T01:05:34.382Z,26.90
2019-01-05T01:08:40.531Z,28.07
2019-01-05T01:11:28.044Z,28.43
2019-01-05T01:14:14.675Z,27.60
2019-01-05T01:17:12.167Z,29.20
2019-01-05T01:20:06.085Z,28.23
2019-01-05T01:23:09.624Z,29.63
2019-01-05T01:25:56.780Z,28.70
2019-01-05T01:28:51.531Z,28.60
2019-01-05T01:31:52.137Z,30.87
2019-01-05T01:34:43.379Z,28.83
2019-01-05T01:37:34.381Z,29.77
2019-01-05T01:40:32.347Z,29.23
2019-01-05T01:43:19.950Z,28.70
2019-01-05T01:46:08.199Z,28.03
2019-01-05T01:48:56.398Z,28.17
2019-01-05T01:51:52.147Z,29.43
2019-01-05T01:54:39.209Z,28.53
2019-01-05T01:57:33.468Z,27.50
2019-01-05T02:00:40.858Z,27.83
2019-01-05T02:03:32.550Z,29.73
2019-01-05T02:06:40.303Z,29.90
2019-01-05T02:09:31.123Z,28.67
2019-01-05T02:12:21.862Z,28.10
2019-01-05T02:15:15.025Z,28.53
2019-01-05T02:18:43.040Z,29.70
2019-01-05T02:21:59.845Z,28.17
2019-01-05T02:25:22.071Z,29.27
2019-01-05T02:28:57.587Z,27.47
2019-01-05T02:32:03.497Z,28.80
2019-01-05T02:35:11.738Z,29.00
2019-01-05T02:38:40.972Z,29.77
2019-01-05T02:42:05.609Z,29.70
2019-01-05T02:45:46.156Z,28.40
2019-01-05T02:49:23.582Z,29.67
2019-01-05T02:52:56.246Z,29.83
2019-01-05T02:56:38.908Z,30.10
2019-01-05T03:00:06.559Z,29.23
2019-01-05T03:03:48.744Z,29.70
2019-01-05T03:06:51.206Z,31.37
2019-01-05T03:10:22.346Z,29.57
2019-01-05T03:14:01.442Z,30.00
2019-01-05T03:17:43.516Z,29.63
2019-01-05T03:21:22.524Z,30.77
2019-01-05T03:24:46.954Z,31.60
2019-01-05T03:28:17.135Z,31.60
2019-01-05T03:31:30.113Z,31.33
2019-01-05T03:35:14.571Z,31.43
2019-01-05T03:38:45.629Z,29.90
2019-01-05T03:42:11.443Z,27.67
2019-01-05T03:45:36.276Z,28.80
2019-01-05T03:49:15.689Z,29.47
2019-01-05T03:52:31.710Z,27.90
2019-01-05T03:55:56.487Z,28.80
2019-01-05T03:59:29.531Z,27.90
2019-01-05T04:03:09.681Z,27.40
2019-01-05T04:06:51.187Z,29.10
2019-01-05T04:10:25.005Z,28.60
2019-01-05T04:13:45.664Z,28.97
2019-01-05T04:17:29.110Z,30.77
2019-01-05T04:20:53.112Z,30.03
2019-01-05T04:24:06.375Z,29.40
2019-01-05T04:27:27.054Z,29.27
2019-01-05T04:30:54.304Z,29.70
2019-01-05T04:34:40.079Z,30.27
2019-01-05T04:38:08.316Z,29.73
2019-01-05T04:41:29.573Z,29.30
2019-01-05T04:44:50.148Z,29.30
2019-01-05T04:48:11.382Z,29.40
2019-01-05T04:51:26.559Z,30.10
2019-01-05T04:55:04.821Z,31.50
2019-01-05T04:58:43.531Z,30.43
2019-01-05T05:02:13.117Z,30.23
2019-01-05T05:05:30.067Z,32.70
2019-01-05T05:09:04.905Z,32.20
2019-01-05T05:12:24.994Z,32.13
2019-01-05T05:16:06.077Z,33.27
2019-01-05T05:19:48.103Z,32.30
2019-01-05T05:23:25.051Z,32.10
2019-01-05T05:26:54.786Z,30.67
2019-01-05T05:30:15.198Z,32.17
2019-01-05T05:33:48.387Z,32.60
2019-01-05T05:37:13.175Z,35.90
2019-01-05T05:40:36.056Z,34.73
2019-01-05T05:44:09.733Z,30.70
2019-01-05T05:47:48.414Z,34.63
2019-01-05T05:51:11.952Z,35.63
2019-01-05T05:54:34.270Z,33.77
2019-01-05T05:58:23.773Z,34.40
2019-01-05T06:01:46.855Z,32.53
2019-01-05T06:05:19.941Z,34.63
2019-01-05T06:08:57.989Z,34.93
2019-01-05T06:12:37.944Z,33.17
2019-01-05T06:16:14.781Z,34.77
2019-01-05T06:19:30.673Z,34.13
2019-01-05T06:23:07.481Z,34.40
2019-01-05T06:26:42.523Z,30.73
2019-01-05T06:30:15.498Z,33.20
2019-01-05T06:33:43.202Z,33.33
2019-01-05T06:37:23.239Z,34.40
2019-01-05T06:40:43.261Z,33.00
2019-01-05T06:44:18.090Z,33.30
2019-01-05T06:48:14.280Z,32.73
2019-01-05T06:52:01.958Z,34.53
2019-01-05T06:55:26.301Z,32.10
2019-01-05T06:58:59.033Z,29.83
2019-01-05T07:02:24.311Z,31.10
2019-01-05T07:06:00.396Z,36.33
2019-01-05T07:09:44.065Z,31.97
2019-01-05T07:13:18.684Z,31.70
2019-01-05T07:17:18.174Z,30.23
2019-01-05T07:20:57.504Z,29.57
2019-01-05T07:24:27.342Z,30.80
2019-01-05T07:27:49.962Z,29.83
2019-01-05T07:31:05.904Z,31.60
2019-01-05T07:34:37.378Z,30.77
2019-01-05T07:38:04.039Z,28.90
2019-01-05T07:41:24.919Z,30.57
2019-01-05T07:44:35.684Z,26.80
2019-01-05T07:47:59.923Z,29.37
2019-01-05T07:51:36.532Z,28.30
2019-01-05T07:55:20.021Z,28.60
2019-01-05T07:58:32.027Z,27.20
2019-01-05T08:01:49.162Z,25.40
2019-01-05T08:05:10.802Z,28.20
2019-01-05T08:08:27.836Z,26.20
2019-01-05T08:11:45.412Z,28.40
2019-01-05T08:15:08.749Z,24.50
2019-01-05T08:18:44.247Z,24.90
2019-01-05T08:22:20.827Z,24.10
2019-01-05T08:25:55.863Z,24.40
2019-01-05T08:29:22.587Z,23.30
2019-01-05T08:33:03.893Z,22.60
2019-01-05T08:36:35.049Z,24.10
2019-01-05T08:40:21.786Z,25.50
2019-01-05T08:43:40.432Z,19.90
2019-01-05T08:47:01.764Z,23.47
2019-01-05T08:50:39.072Z,22.47
2019-01-05T08:53:52.179Z,19.30
2019-01-05T08:57:30.447Z,22.67
2019-01-05T09:01:02.392Z,20.63
2019-01-05T09:04:40.475Z,20.20
2019-01-05T09:08:03.166Z,17.47
2019-01-05T09:11:35.184Z,17.07
2019-01-05T09:15:17.945Z,17.87
2019-01-05T09:18:41.698Z,19.73
2019-01-05T09:22:10.072Z,18.80
2019-01-05T09:25:39.129Z,18.37
2019-01-05T09:29:30.405Z,18.50
2019-01-05T09:32:55.657Z,19.60
2019-01-05T09:36:19.199Z,16.20
2019-01-05T09:39:43.841Z,16.13
2019-01-05T09:43:15.493Z,16.17
2019-01-05T09:46:48.528Z,15.70
2019-01-05T09:50:37.986Z,16.30
2019-01-05T09:54:11.451Z,15.23
2019-01-05T09:58:00.515Z,16.43
2019-01-05T10:01:34.630Z,15.60
2019-01-05T10:05:26.516Z,15.60
2019-01-05T10:08:53.426Z,15.37
2019-01-05T10:12:24.061Z,15.30
2019-01-05T10:15:46.455Z,14.90
2019-01-05T10:19:17.642Z,13.57
2019-01-05T10:22:54.539Z,14.50
2019-01-05T10:26:33.162Z,14.70
2019-01-05T10:30:14.055Z,13.30
2019-01-05T10:33:36.345Z,12.40
2019-01-05T10:37:00.774Z,12.33
2019-01-05T10:40:13.319Z,11.57
2019-01-05T10:43:53.055Z,11.03
2019-01-05T10:47:52.300Z,10.80
2019-01-05T10:51:17.797Z,11.10
2019-01-05T10:54:55.051Z,10.50
2019-01-05T10:58:29.240Z,10.53
2019-01-05T11:02:12.137Z,10.97
2019-01-05T11:05:26.585Z,10.17
2019-01-05T11:09:00.122Z,10.80
2019-01-05T11:12:23.052Z,11.07
2019-01-05T11:15:51.388Z,11.87
2019-01-05T11:19:26.666Z,10.20
2019-01-05T11:22:49.524Z,12.17
2019-01-05T11:26:10.589Z,10.70
2019-01-05T11:29:52.459Z,11.13
2019-01-05T11:33:17.659Z,11.77
2019-01-05T11:37:13.948Z,12.20
2019-01-05T11:40:57.399Z,13.90
2019-01-05T11:44:15.149Z,11.80
2019-01-05T11:47:39.642Z,11.60
2019-01-05T11:51:32.636Z,13.33
2019-01-05T11:55:13.328Z,11.97
2019-01-05T11:58:25.230Z,12.57
2019-01-05T12:02:10.999Z,12.20
2019-01-05T12:05:41.612Z,12.00
2019-01-05T12:09:11.200Z,13.60
2019-01-05T12:12:42.297Z,14.20
2019-01-05T12:16:18.607Z,14.50
2019-01-05T12:19:59.485Z,13.83
2019-01-05T12:23:52.300Z,14.03
2019-01-05T12:27:15.113Z,14.77
2019-01-05T12:30:47.432Z,14.83
2019-01-05T12:34:15.611Z,15.07
2019-01-05T12:37:45.700Z,14.93
2019-01-05T12:41:05.402Z,16.40
2019-01-05T12:44:32.271Z,15.30
2019-01-05T12:48:22.680Z,15.40
2019-01-05T12:51:53.739Z,16.23
2019-01-05T12:55:10.511Z,15.43
2019-01-05T12:58:27.343Z,14.03
2019-01-05T13:02:05.654Z,14.93
2019-01-05T13:05:37.148Z,15.57
2019-01-05T13:09:06.478Z,14.20
2019-01-05T13:12:47.599Z,13.50
2019-01-05T13:16:11.346Z,14.60
2019-01-05T13:19:58.228Z,14.17
2019-01-05T13:23:47.224Z,13.83
2019-01-05T13:27:27.356Z,14.30
2019-01-05T13:31:05.827Z,14.10
2019-01-05T13:34:52.370Z,13.30
2019-01-05T13:38:41.917Z,16.50
2019-01-05T13:41:55.435Z,13.40
2019-01-05T13:45:38.726Z,13.27
2019-01-05T13:49:03.061Z,14.50
2019-01-05T13:52:27.544Z,15.23
2019-01-05T13:55:19.367Z,14.50
2019-01-05T13:58:06.217Z,14.60
2019-01-05T14:00:53.084Z,15.53
2019-01-05T14:03:53.503Z,15.20
2019-01-05T14:06:40.233Z,15.00
2019-01-05T14:09:28.447Z,16.27
2019-01-05T14:12:15.732Z,14.57
2019-01-05T14:15:00.592Z,17.37
2019-01-05T14:18:07.340Z,16.70
2019-01-05T14:20:55.484Z,15.43
2019-01-05T14:23:42.233Z,16.80
2019-01-05T14:26:20.847Z,17.30
2019-01-05T14:29:09.408Z,19.20
2019-01-05T14:31:56.369Z,16.00
2019-01-05T14:34:40.995Z,18.20
2019-01-05T14:37:47.368Z,17.10
2019-01-05T14:40:39.130Z,18.60
2019-01-05T14:43:25.712Z,16.97
2019-01-05T14:46:14.126Z,17.70
2019-01-05T14:49:00.986Z,18.53
2019-01-05T14:51:49.053Z,18.50
2019-01-05T14:54:35.947Z,18.07
2019-01-05T14:57:24.021Z,18.73
2019-01-05T15:00:10.963Z,17.60
2019-01-05T15:03:04.254Z,19.17
2019-01-05T15:05:55.566Z,18.27
2019-01-05T15:08:42.686Z,19.03
2019-01-05T15:11:32.304Z,20.37
2019-01-05T15:14:18.947Z,19.57
2019-01-05T15:17:06.212Z,18.40
2019-01-05T15:19:55.773Z,18.20
2019-01-05T15:22:56.305Z,17.83
2019-01-05T15:25:47.641Z,18.20
2019-01-05T15:28:31.689Z,18.70
2019-01-05T15:31:19.721Z,19.80
2019-01-05T15:34:07.325Z,18.60
2019-01-05T15:36:58.593Z,19.43
2019-01-05T15:40:04.974Z,17.90
2019-01-05T15:42:55.038Z,19.53
2019-01-05T15:45:46.105Z,19.20
2019-01-05T15:48:39.694Z,18.97
2019-01-05T15:51:26.390Z,18.97
2019-01-05T15:54:17.052Z,19.70
2019-01-05T15:57:04.178Z,19.30
2019-01-05T16:00:07.810Z,18.43
2019-01-05T16:02:54.173Z,19.57
2019-01-05T16:05:54.637Z,18.90
2019-01-05T16:08:58.099Z,19.80
2019-01-05T16:12:13.225Z,20.43
2019-01-05T16:15:13.601Z,19.80
2019-01-05T16:18:00.425Z,20.60
2019-01-05T16:20:48.375Z,21.10
2019-01-05T16:23:35.275Z,22.07
2019-01-05T16:26:22.125Z,20.80
2019-01-05T16:29:22.362Z,21.40
2019-01-05T16:32:10.439Z,22.13
2019-01-05T16:35:14.539Z,23.30
2019-01-05T16:38:10.385Z,19.60
2019-01-05T16:41:04.687Z,19.27
2019-01-05T16:43:55.765Z,21.00
2019-01-05T16:46:59.142Z,20.57
2019-01-05T16:49:45.841Z,19.87
2019-01-05T16:52:35.064Z,19.10
2019-01-05T16:55:35.510Z,19.37
2019-01-05T16:58:22.338Z,19.70
2019-01-05T17:01:09.482Z,20.90
2019-01-05T17:03:56.429Z,19.70
2019-01-05T17:06:43.560Z,19.47
2019-01-05T17:09:40.986Z,20.83
2019-01-05T17:12:40.114Z,19.73
2019-01-05T17:15:26.958Z,19.53
2019-01-05T17:18:21.509Z,20.33
2019-01-05T17:21:08.392Z,19.70
2019-01-05T17:24:02.746Z,20.43
2019-01-05T17:26:56.796Z,20.73
2019-01-05T17:30:00.048Z,19.30
2019-01-05T17:32:47.477Z,21.23
2019-01-05T17:35:35.831Z,21.30
2019-01-05T17:38:39.224Z,21.53
2019-01-05T17:41:33.276Z,20.80
2019-01-05T17:44:20.455Z,22.60
2019-01-05T17:47:17.678Z,20.23
2019-01-05T17:50:09.766Z,20.80
2019-01-05T17:53:03.731Z,23.20
2019-01-05T17:55:52.383Z,24.73
2019-01-05T17:58:49.472Z,21.60
2019-01-05T18:01:36.141Z,21.37
2019-01-05T18:04:22.935Z,22.67
2019-01-05T18:07:23.223Z,22.70
2019-01-05T18:10:09.895Z,25.97
2019-01-05T18:13:00.572Z,22.03
2019-01-05T18:16:07.284Z,22.50
2019-01-05T18:19:04.464Z,22.07
2019-01-05T18:21:58.757Z,22.97
2019-01-05T18:24:53.400Z,22.77
2019-01-05T18:27:56.885Z,20.60
2019-01-05T18:30:55.519Z,21.60
2019-01-05T18:33:42.629Z,20.60
2019-01-05T18:36:31.265Z,20.13
2019-01-05T18:39:19.522Z,20.37
2019-01-05T18:42:03.407Z,21.27
2019-01-05T18:44:56.140Z,21.03
2019-01-05T18:47:43.038Z,22.37
2019-01-05T18:50:40.302Z,22.57
2019-01-05T18:53:26.981Z,22.20
2019-01-05T18:56:13.724Z,22.10
2019-01-05T18:59:02.195Z,23.20
2019-01-05T19:01:59.640Z,19.33
2019-01-05T19:04:46.652Z,20.03
2019-01-05T19:07:36.167Z,21.40
2019-01-05T19:10:26.178Z,20.50
2019-01-05T19:13:14.432Z,20.60
2019-01-05T19:16:13.964Z,22.57
2019-01-05T19:19:01.181Z,24.30
2019-01-05T19:21:49.393Z,22.13
2019-01-05T19:24:40.495Z,23.80
2019-01-05T19:27:25.312Z,21.40
2019-01-05T19:30:06.849Z,24.20
2019-01-05T19:33:10.354Z,23.93
2019-01-05T19:35:58.476Z,23.03
2019-01-05T19:38:48.511Z,21.77
2019-01-05T19:41:33.985Z,22.17
2019-01-05T19:44:20.655Z,23.60
2019-01-05T19:47:08.059Z,22.00
2019-01-05T19:49:48.890Z,22.27
2019-01-05T19:52:36.220Z,24.03
2019-01-05T19:55:23.204Z,22.83
2019-01-05T19:58:10.121Z,24.53
2019-01-05T20:00:51.855Z,22.80
2019-01-05T20:03:38.751Z,21.20
2019-01-05T20:06:25.263Z,22.07
2019-01-05T20:09:27.674Z,23.07
2019-01-05T20:12:28.071Z,21.53
2019-01-05T20:15:16.256Z,24.20
2019-01-05T20:18:09.132Z,23.47
2019-01-05T20:20:57.579Z,24.77
2019-01-05T20:23:45.872Z,25.67
2019-01-05T20:26:32.542Z,24.13
2019-01-05T20:29:21.625Z,23.90
2019-01-05T20:32:10.049Z,24.77
2019-01-05T20:35:13.896Z,26.57
2019-01-05T20:37:54.803Z,26.50
2019-01-05T20:40:42.928Z,25.87
2019-01-05T20:43:30.060Z,24.87
2019-01-05T20:46:21.048Z,24.77
2019-01-05T20:49:08.172Z,26.80
2019-01-05T20:51:59.187Z,25.10
2019-01-05T20:54:54.517Z,25.00
2019-01-05T20:57:41.668Z,22.40
2019-01-05T21:00:39.221Z,24.17
2019-01-05T21:03:30.406Z,24.10
2019-01-05T21:06:17.749Z,23.80
2019-01-05T21:09:05.808Z,23.60
2019-01-05T21:11:52.979Z,21.53
2019-01-05T21:14:47.187Z,23.10
2019-01-05T21:17:34.328Z,21.30
2019-01-05T21:20:28.864Z,24.00
2019-01-05T21:23:15.911Z,20.90
2019-01-05T21:26:10.313Z,23.07
2019-01-05T21:28:59.318Z,22.23
2019-01-05T21:32:02.686Z,21.60
2019-01-05T21:34:53.822Z,20.50
2019-01-05T21:37:41.048Z,23.50
2019-01-05T21:40:28.265Z,21.83
2019-01-05T21:43:16.507Z,21.77
2019-01-05T21:46:03.257Z,22.67
2019-01-05T21:48:51.346Z,22.60
2019-01-05T21:51:38.446Z,21.80
2019-01-05T21:54:25.134Z,20.10
2019-01-05T21:57:16.057Z,21.50
2019-01-05T22:00:10.557Z,20.07
2019-01-05T22:02:51.226Z,22.40
2019-01-05T22:05:54.609Z,21.53
2019-01-05T22:08:40.432Z,20.90
2019-01-05T22:11:28.806Z,20.30
2019-01-05T22:14:17.295Z,20.77
2019-01-05T22:17:08.499Z,21.00
2019-01-05T22:20:02.767Z,19.77
2019-01-05T22:23:00.703Z,20.87
2019-01-05T22:26:02.408Z,19.80
2019-01-05T22:28:44.174Z,20.53
2019-01-05T22:31:35.229Z,19.43
2019-01-05T22:34:22.304Z,21.80
2019-01-05T22:37:12.314Z,23.17
2019-01-05T22:40:03.715Z,21.73
2019-01-05T22:42:53.599Z,22.13
2019-01-05T22:45:50.986Z,23.03
2019-01-05T22:48:54.504Z,21.87
2019-01-05T22:51:41.375Z,21.37
2019-01-05T22:54:47.400Z,20.90
2019-01-05T22:57:47.216Z,19.40
2019-01-05T23:00:33.987Z,22.00
2019-01-05T23:03:27.632Z,22.27
2019-01-05T23:06:34.469Z,21.57
2019-01-05T23:09:25.921Z,21.33
2019-01-05T23:12:14.372Z,25.17
2019-01-05T23:14:59.975Z,18.80
2019-01-05T23:17:48.328Z,20.17
2019-01-05T23:20:55.158Z,20.57
2019-01-05T23:23:55.351Z,19.27
2019-01-05T23:26:58.549Z,19.80
2019-01-05T23:29:45.652Z,18.57
2019-01-05T23:32:32.421Z,18.47
2019-01-05T23:35:20.768Z,19.17
2019-01-05T23:38:07.770Z,19.03
2019-01-05T23:40:56.187Z,19.47
2019-01-05T23:43:43.097Z,19.43
2019-01-05T23:46:34.216Z,18.37
2019-01-05T23:49:31.247Z,20.00
2019-01-05T23:52:14.293Z,18.43
2019-01-05T23:55:05.411Z,18.47
2019-01-05T23:57:50.599Z,18.23
